createdAt,value
2022-12-01T00:14:38.945Z,5.6
2022-12-01T00:29:48.402Z,5.6
2022-12-01T00:44:59.659Z,5.6
2022-12-01T01:00:09.148Z,5.6
2022-12-01T01:15:18.452Z,5.5
2022-12-01T01:30:26.968Z,5.5
2022-12-01T01:45:40.437Z,5.4
2022-12-01T02:00:50.015Z,5.4
2022-12-01T02:16:02.730Z,5.3
2022-12-01T02:31:15.056Z,5.4
2022-12-01T02:46:24.953Z,5.3
2022-12-01T03:01:34.870Z,5.3
2022-12-01T03:16:45.121Z,5.2
2022-12-01T03:31:54.433Z,5.3
2022-12-01T03:47:07.085Z,5.3
2022-12-01T04:02:17.256Z,5.2
2022-12-01T04:17:26.622Z,5.2
2022-12-01T04:32:36.297Z,5.1
2022-12-01T04:47:45.638Z,5
2022-12-01T05:02:54.676Z,4.9
2022-12-01T05:18:04.123Z,4.8
2022-12-01T05:33:12.612Z,4.8
2022-12-01T05:48:21.973Z,4.8
2022-12-01T06:03:31.589Z,4.7
2022-12-01T06:18:40.953Z,4.6
2022-12-01T06:33:50.314Z,4.5
2022-12-01T06:49:02.703Z,4.5
2022-12-01T07:04:11.901Z,4.4
2022-12-01T07:19:27.014Z,4.4
2022-12-01T07:34:36.833Z,4.3
2022-12-01T07:49:46.778Z,4.2
2022-12-01T08:04:57.700Z,4.2
2022-12-01T08:20:07.117Z,4.2
2022-12-01T08:35:16.615Z,4.2
2022-12-01T08:50:26.126Z,4.3
2022-12-01T09:05:35.459Z,4.3
2022-12-01T09:20:45.518Z,4.3
2022-12-01T09:35:54.322Z,4.3
2022-12-01T09:51:03.975Z,4.3
2022-12-01T10:06:29.473Z,4.4
2022-12-01T10:21:42.440Z,4.4
2022-12-01T10:36:51.814Z,4.4
2022-12-01T10:52:01.265Z,4.2
2022-12-01T11:07:10.567Z,4.2
2022-12-01T11:22:22.120Z,4.2
2022-12-01T11:37:31.854Z,4.2
2022-12-01T11:52:41.127Z,4
2022-12-01T12:07:54.327Z,3.9
2022-12-01T12:23:12.475Z,4
2022-12-01T12:38:21.735Z,4.1
2022-12-01T12:53:30.980Z,4.1
2022-12-01T13:08:40.261Z,4.1
2022-12-01T13:23:49.992Z,4.1
2022-12-01T13:38:59.637Z,4
2022-12-01T13:54:10.052Z,4.1
2022-12-01T14:09:29.121Z,4
2022-12-01T14:24:39.040Z,4
2022-12-01T14:39:48.437Z,3.9
2022-12-01T14:54:57.868Z,3.8
2022-12-01T15:10:07.936Z,3.8
2022-12-01T15:25:17.960Z,3.8
2022-12-01T15:56:43.124Z,3.9
2022-12-01T16:11:52.638Z,3.8
2022-12-01T16:27:01.918Z,3.8
2022-12-01T16:42:11.789Z,3.8
2022-12-01T16:59:49.387Z,4.6
2022-12-01T17:15:00.634Z,4
2022-12-01T17:30:10.010Z,3.9
2022-12-01T17:45:19.163Z,3.8
2022-12-01T18:00:28.560Z,3.8
2022-12-01T18:15:38.111Z,3.8
2022-12-01T18:30:47.770Z,3.7
2022-12-01T18:45:57.495Z,3.7
2022-12-01T19:01:06.948Z,3.7
2022-12-01T19:16:17.293Z,3.7
2022-12-01T19:31:26.588Z,3.7
2022-12-01T19:46:36.484Z,3.7
2022-12-01T20:01:45.995Z,3.8
2022-12-01T20:16:58.520Z,3.8
2022-12-01T20:32:11.924Z,3.8
2022-12-01T20:47:22.374Z,3.7
2022-12-01T21:02:32.176Z,3.7
2022-12-01T21:17:42.145Z,3.6
2022-12-01T21:32:51.515Z,3.6
2022-12-01T21:48:01.243Z,3.6
2022-12-01T22:03:10.779Z,3.5
2022-12-01T22:18:20.521Z,3.4
2022-12-01T22:33:30.228Z,3.4
2022-12-01T22:48:39.643Z,3.4
2022-12-01T23:03:48.965Z,3.3
2022-12-01T23:18:58.488Z,3.3
2022-12-01T23:34:08.126Z,3.2
2022-12-01T23:49:17.422Z,3.2
